Time;durP1;ratioP1;P1;durP2;ratioP2;P2;SDS_P1;SDS_P2;PMS_P1;PMS_P2;Temp;Humidity;BMP_temperature;BMP_pressure;BME280_temperature;BME280_humidity;BME280_pressure;Samples;Min_cycle;Max_cycle;Signal;HPM_P1;HPM_P2
2022/05/02 00:00:07;;;;;;;;;;;;;;;9.25;100.00;96354.66;5011158;28;19915;-79
2022/05/02 00:02:33;;;;;;;;;;;;;;;9.31;100.00;96350.63;5010247;28;19981;-80
2022/05/02 00:04:58;;;;;;;;;;;;;;;9.29;100.00;96349.94;5005540;28;20460;-80
2022/05/02 00:07:24;;;;;;;;;;;;;;;9.23;100.00;96340.88;5009603;28;20457;-80
2022/05/02 00:09:49;;;;;;;;;;;;;;;9.30;100.00;96347.19;5012559;28;20375;-80
2022/05/02 00:12:15;;;;;;;;;;;;;;;9.31;100.00;96340.13;5013303;28;19924;-80
2022/05/02 00:14:40;;;;;;;;;;;;;;;9.31;100.00;96343.56;5013856;28;19913;-80
2022/05/02 00:17:06;;;;;;;;;;;;;;;9.32;100.00;96332.13;5013326;28;19925;-79
2022/05/02 00:19:31;;;;;;;;;;;;;;;9.31;100.00;96327.00;4995731;28;20064;-79
2022/05/02 00:21:57;;;;;;;;;;;;;;;9.23;100.00;96334.81;5010250;28;20403;-78
2022/05/02 00:24:22;;;;;;;;;;;;;;;9.20;100.00;96330.66;5008032;28;19924;-79
2022/05/02 00:26:48;;;;;;;;;;;;;;;9.09;100.00;96334.34;5010290;28;19988;-79
2022/05/02 00:29:14;;;;;;;;;;;;;;;9.05;100.00;96327.72;5009638;28;20350;-79
2022/05/02 00:31:40;;;;;;;;;;;;;;;9.03;100.00;96324.41;5001353;28;19921;-79
2022/05/02 00:34:05;;;;;;;;;;;;;;;9.02;100.00;96322.78;5024938;28;19935;-78
2022/05/02 00:36:31;;;;;;;;;;;;;;;9.02;100.00;96320.16;5007621;28;19917;-79
2022/05/02 00:38:56;;;;;;;;;;;;;;;8.98;100.00;96322.22;5010508;28;19959;-79
2022/05/02 00:41:22;;;;;;;;;;;;;;;8.98;100.00;96321.41;5010590;28;19956;-79
2022/05/02 00:43:48;;;;;;;;;;;;;;;8.93;100.00;96315.78;5001749;28;19983;-79
2022/05/02 00:46:18;;;;;;;;;;;;;;;8.83;100.00;96313.22;5002489;28;19917;-79
2022/05/02 00:48:43;;;;;;;;;;;;;;;8.86;100.00;96317.34;5007527;28;20408;-79
2022/05/02 00:51:09;;;;;;;;;;;;;;;8.81;100.00;96315.16;5009298;28;19917;-79
2022/05/02 00:53:34;;;;;;;;;;;;;;;8.73;100.00;96315.88;5009731;28;19917;-79
2022/05/02 00:56:00;;;;;;;;;;;;;;;8.73;100.00;96313.25;5009350;28;20391;-79
2022/05/02 00:58:26;;;;;;;;;;;;;;;8.59;100.00;96311.13;5022535;28;19918;-79
2022/05/02 01:00:51;;;;;;;;;;;;;;;8.37;100.00;96321.94;5002391;28;19980;-79
2022/05/02 01:03:17;;;;;;;;;;;;;;;8.18;100.00;96314.94;5004948;28;19913;-79
2022/05/02 01:08:30;;;;;;;;;;;;;;;8.10;100.00;96314.84;5011697;28;20556;-79
2022/05/02 01:10:56;;;;;;;;;;;;;;;8.04;100.00;96311.00;5026845;28;19917;-79
2022/05/02 01:13:36;;;;;;;;;;;;;;;8.10;100.00;96314.84;5015896;28;20862;-79
2022/05/02 01:16:08;;;;;;;;;;;;;;;7.96;100.00;96318.75;5018943;28;19920;-79
2022/05/02 01:18:33;;;;;;;;;;;;;;;8.00;100.00;96314.88;5007790;28;19976;-79
2022/05/02 01:20:59;;;;;;;;;;;;;;;7.97;100.00;96305.50;4988832;28;20548;-79
2022/05/02 01:23:24;;;;;;;;;;;;;;;8.04;100.00;96301.34;5016074;28;19943;-79
2022/05/02 01:25:50;;;;;;;;;;;;;;;8.03;100.00;96299.69;5008449;28;19917;-79
2022/05/02 01:28:15;;;;;;;;;;;;;;;8.04;100.00;96296.09;5009004;28;20028;-79
2022/05/02 01:30:41;;;;;;;;;;;;;;;7.97;100.00;96295.03;5008011;28;19923;-79
2022/05/02 01:33:09;;;;;;;;;;;;;;;8.00;100.00;96299.16;5008768;28;19913;-78
2022/05/02 01:35:34;;;;;;;;;;;;;;;8.05;100.00;96296.97;5010697;28;20717;-79
2022/05/02 01:38:00;;;;;;;;;;;;;;;7.98;100.00;96290.59;4995058;28;20009;-79
2022/05/02 01:40:25;;;;;;;;;;;;;;;8.00;100.00;96293.91;5012033;28;19920;-79
2022/05/02 01:42:51;;;;;;;;;;;;;;;7.91;100.00;96289.53;5027958;28;19914;-79
2022/05/02 01:45:16;;;;;;;;;;;;;;;7.75;100.00;96290.94;5013161;28;19936;-79
2022/05/02 01:47:42;;;;;;;;;;;;;;;7.83;100.00;96290.22;5012131;28;19920;-78
2022/05/02 01:50:08;;;;;;;;;;;;;;;7.85;100.00;96292.72;5005862;28;19914;-79
2022/05/02 01:52:33;;;;;;;;;;;;;;;7.90;100.00;96287.88;5012020;28;21019;-79
2022/05/02 01:54:59;;;;;;;;;;;;;;;7.90;100.00;96287.88;5011148;28;19933;-79
2022/05/02 01:57:24;;;;;;;;;;;;;;;7.87;100.00;96280.31;5011287;28;19921;-78
2022/05/02 01:59:49;;;;;;;;;;;;;;;7.95;100.00;96283.06;5005200;28;20019;-79
2022/05/02 02:02:15;;;;;;;;;;;;;;;7.96;100.00;96282.09;5012809;28;19913;-79
2022/05/02 02:07:25;;;;;;;;;;;;;;;7.85;100.00;96279.63;5007916;28;20751;-79
2022/05/02 02:09:50;;;;;;;;;;;;;;;7.83;100.00;96274.53;5013213;28;19924;-79
2022/05/02 02:12:16;;;;;;;;;;;;;;;7.77;100.00;96273.28;5013482;28;20464;-79
2022/05/02 02:14:41;;;;;;;;;;;;;;;7.66;100.00;96270.84;5011385;28;19917;-79
2022/05/02 02:17:07;;;;;;;;;;;;;;;7.55;100.00;96273.63;4997881;28;19992;-79
2022/05/02 02:19:32;;;;;;;;;;;;;;;7.48;100.00;96278.59;5012926;28;19920;-79
2022/05/02 02:22:16;;;;;;;;;;;;;;;7.42;100.00;96281.75;5006645;28;19917;-79
2022/05/02 02:24:42;;;;;;;;;;;;;;;7.38;100.00;96282.16;4998500;28;19920;-79
2022/05/02 02:27:07;;;;;;;;;;;;;;;7.31;100.00;96274.06;5008165;28;19909;-79
2022/05/02 02:29:33;;;;;;;;;;;;;;;7.27;100.00;96273.47;5012881;28;19940;-79
2022/05/02 02:31:58;;;;;;;;;;;;;;;7.25;100.00;96275.41;5014430;28;19921;-78
2022/05/02 02:34:24;;;;;;;;;;;;;;;7.31;100.00;96271.44;5016329;28;19967;-79
2022/05/02 02:36:49;;;;;;;;;;;;;;;7.36;100.00;96266.59;5009354;28;19918;-79
2022/05/02 02:39:15;;;;;;;;;;;;;;;7.32;100.00;96268.66;5010539;28;19919;-79
2022/05/02 02:41:40;;;;;;;;;;;;;;;7.35;100.00;96264.97;5021942;28;19914;-79
2022/05/02 02:44:05;;;;;;;;;;;;;;;7.28;100.00;96261.25;5004818;28;20003;-79
2022/05/02 02:46:31;;;;;;;;;;;;;;;7.31;100.00;96263.59;5012233;28;19925;-79
2022/05/02 02:48:56;;;;;;;;;;;;;;;7.35;100.00;96264.97;5028514;28;19978;-78
2022/05/02 02:51:22;;;;;;;;;;;;;;;7.31;100.00;96256.56;5012418;28;20417;-79
2022/05/02 02:53:48;;;;;;;;;;;;;;;7.37;100.00;96264.81;4990642;28;19914;-79
2022/05/02 02:56:14;;;;;;;;;;;;;;;7.31;100.00;96256.56;5004513;28;19960;-81
2022/05/02 02:58:40;;;;;;;;;;;;;;;7.28;100.00;96256.84;5025277;28;19925;-79
2022/05/02 03:01:05;;;;;;;;;;;;;;;7.15;100.00;96253.66;5012236;28;19909;-79
2022/05/02 03:03:31;;;;;;;;;;;;;;;7.14;100.00;96256.41;4993136;28;20070;-79
2022/05/02 03:06:02;;;;;;;;;;;;;;;7.16;100.00;96254.50;5010878;28;20328;-79
2022/05/02 03:08:28;;;;;;;;;;;;;;;7.17;100.00;96251.72;5012408;28;19920;-79
2022/05/02 03:10:55;;;;;;;;;;;;;;;7.17;100.00;96251.72;5003577;28;19963;-78
2022/05/02 03:13:21;;;;;;;;;;;;;;;7.11;100.00;96241.84;4996271;28;20004;-79
2022/05/02 03:15:47;;;;;;;;;;;;;;;7.14;100.00;96246.75;5009604;28;20460;-79
2022/05/02 03:18:12;;;;;;;;;;;;;;;7.05;100.00;96237.97;5005903;28;19910;-79
2022/05/02 03:20:39;;;;;;;;;;;;;;;7.02;100.00;96237.44;5003491;28;19921;-79
2022/05/02 03:23:04;;;;;;;;;;;;;;;6.96;100.00;96241.41;5001757;28;20020;-79
2022/05/02 03:25:30;;;;;;;;;;;;;;;6.90;100.00;96241.94;5005557;28;19927;-78
2022/05/02 03:27:55;;;;;;;;;;;;;;;6.87;100.00;96241.38;5017398;28;19913;-79
2022/05/02 03:30:22;;;;;;;;;;;;;;;6.89;100.00;96239.47;5013715;28;19924;-79
2022/05/02 03:32:47;;;;;;;;;;;;;;;6.85;100.00;96255.44;5012450;28;19918;-79
2022/05/02 03:35:13;;;;;;;;;;;;;;;6.81;100.00;96248.00;5013735;28;19913;-79
2022/05/02 03:37:38;;;;;;;;;;;;;;;6.70;100.00;96241.09;5025215;28;19923;-78
2022/05/02 03:40:05;;;;;;;;;;;;;;;6.68;100.00;96243.03;5011761;28;19944;-79
2022/05/02 03:42:30;;;;;;;;;;;;;;;6.72;100.00;96238.34;5011064;28;20048;-79
2022/05/02 03:44:55;;;;;;;;;;;;;;;6.71;100.00;96240.16;5011690;28;19989;-79
2022/05/02 03:47:21;;;;;;;;;;;;;;;6.60;100.00;96240.25;5011536;28;19917;-79
2022/05/02 03:49:46;;;;;;;;;;;;;;;6.52;100.00;96242.72;5006857;28;19921;-78
2022/05/02 03:52:12;;;;;;;;;;;;;;;6.51;100.00;96233.22;4983926;28;19975;-78
2022/05/02 03:54:38;;;;;;;;;;;;;;;6.46;100.00;96238.03;5011057;28;19918;-79
2022/05/02 03:57:03;;;;;;;;;;;;;;;6.42;100.00;96231.41;5011731;28;19913;-78
2022/05/02 03:59:29;;;;;;;;;;;;;;;6.26;100.00;96237.94;5007078;28;19925;-79
2022/05/02 04:01:54;;;;;;;;;;;;;;;6.21;100.00;96240.16;5002770;28;19920;-79
2022/05/02 04:04:20;;;;;;;;;;;;;;;6.26;100.00;96237.94;5010469;28;19968;-78
2022/05/02 04:06:47;;;;;;;;;;;;;;;6.28;100.00;96233.44;5012960;28;19921;-78
2022/05/02 04:09:12;;;;;;;;;;;;;;;6.20;100.00;96230.66;5002145;28;19933;-78
2022/05/02 04:11:38;;;;;;;;;;;;;;;6.02;100.00;96235.66;5002387;28;19913;-79
2022/05/02 04:14:04;;;;;;;;;;;;;;;6.00;100.00;96234.13;5011285;28;19917;-79
2022/05/02 04:16:29;;;;;;;;;;;;;;;5.92;100.00;96234.78;5002006;28;19909;-78
2022/05/02 04:18:55;;;;;;;;;;;;;;;5.89;100.00;96238.47;5025436;28;19918;-78
2022/05/02 04:21:20;;;;;;;;;;;;;;;5.98;100.00;96241.28;5010613;28;19921;-79
2022/05/02 04:23:46;;;;;;;;;;;;;;;5.98;100.00;96236.06;5013870;28;19919;-79
2022/05/02 04:26:12;;;;;;;;;;;;;;;6.04;100.00;96236.38;4996127;28;19960;-79
2022/05/02 04:28:38;;;;;;;;;;;;;;;6.06;100.00;96231.84;5011192;28;19910;-79
2022/05/02 04:31:03;;;;;;;;;;;;;;;6.03;100.00;96226.06;5013790;28;19917;-78
2022/05/02 04:33:29;;;;;;;;;;;;;;;6.05;100.00;96224.16;5010390;28;20670;-79
2022/05/02 04:35:55;;;;;;;;;;;;;;;6.07;100.00;96237.88;5009813;28;20001;-78
2022/05/02 04:38:20;;;;;;;;;;;;;;;6.09;100.00;96226.34;5003195;28;19920;-78
2022/05/02 04:40:46;;;;;;;;;;;;;;;6.13;100.00;96219.06;5004990;28;19917;-79
2022/05/02 04:43:13;;;;;;;;;;;;;;;6.19;100.00;96229.00;5008254;28;19945;-79
2022/05/02 04:45:40;;;;;;;;;;;;;;;6.29;100.00;96229.03;5008717;28;19921;-78
2022/05/02 04:48:06;;;;;;;;;;;;;;;6.39;100.00;96227.28;5005493;28;19921;-79
2022/05/02 04:50:31;;;;;;;;;;;;;;;6.48;100.00;96226.47;5007610;28;20302;-78
2022/05/02 04:52:57;;;;;;;;;;;;;;;6.63;100.00;96233.94;5009838;28;20434;-79
2022/05/02 04:55:22;;;;;;;;;;;;;;;6.53;100.00;96234.72;5008340;28;20011;-78
2022/05/02 04:57:48;;;;;;;;;;;;;;;6.59;100.00;96231.59;5008769;28;19914;-78
2022/05/02 05:00:14;;;;;;;;;;;;;;;6.75;100.00;96232.84;5009247;28;19909;-78
2022/05/02 05:02:40;;;;;;;;;;;;;;;6.66;100.00;96225.81;4995152;28;20008;-78
2022/05/02 05:05:06;;;;;;;;;;;;;;;6.77;100.00;96223.94;5010221;28;20068;-79
2022/05/02 05:07:32;;;;;;;;;;;;;;;6.71;100.00;96227.09;5008410;28;20020;-78
2022/05/02 05:09:57;;;;;;;;;;;;;;;6.97;100.00;96221.31;5009134;28;20451;-79
2022/05/02 05:12:29;;;;;;;;;;;;;;;7.02;100.00;96219.13;5028818;28;20047;-79
2022/05/02 05:18:15;;;;;;;;;;;;;;;7.48;100.00;96214.97;5008719;28;19917;-79
2022/05/02 05:20:41;;;;;;;;;;;;;;;7.45;100.00;96213.44;4985084;28;19921;-79
2022/05/02 05:23:25;;;;;;;;;;;;;;;7.76;100.00;96213.22;5008765;28;19914;-79
2022/05/02 05:26:09;;;;;;;;;;;;;;;7.87;100.00;96214.84;4998345;28;20438;-79
2022/05/02 05:28:41;;;;;;;;;;;;;;;7.99;100.00;96208.47;5014463;28;19917;-79
2022/05/02 05:31:10;;;;;;;;;;;;;;;8.21;100.00;96210.72;4995796;28;19914;-79
2022/05/02 05:33:38;;;;;;;;;;;;;;;8.10;100.00;96210.91;5004887;28;19918;-79
2022/05/02 05:36:07;;;;;;;;;;;;;;;8.03;100.00;96210.66;4984053;28;20355;-84
2022/05/02 05:38:51;;;;;;;;;;;;;;;8.25;100.00;96214.72;5011527;28;20505;-80
2022/05/02 05:41:35;;;;;;;;;;;;;;;8.52;100.00;96225.34;5013651;28;19923;-80
2022/05/02 05:44:10;;;;;;;;;;;;;;;8.40;100.00;96206.38;5012460;28;19917;-79
2022/05/02 05:46:42;;;;;;;;;;;;;;;8.72;100.00;96216.41;5014898;28;19951;-79
2022/05/02 05:49:16;;;;;;;;;;;;;;;8.90;100.00;96213.78;4990550;28;19918;-80
2022/05/02 05:51:48;;;;;;;;;;;;;;;9.03;100.00;96214.25;5014561;28;19964;-80
2022/05/02 05:54:20;;;;;;;;;;;;;;;8.84;100.00;96223.06;4993424;28;19923;-79
2022/05/02 05:57:03;;;;;;;;;;;;;;;9.26;100.00;96221.66;5012559;28;19925;-79
2022/05/02 05:59:29;;;;;;;;;;;;;;;9.31;100.00;96227.28;5011671;28;19913;-80
2022/05/02 06:01:55;;;;;;;;;;;;;;;9.12;100.00;96221.22;4996425;28;19971;-79
2022/05/02 06:04:23;;;;;;;;;;;;;;;9.26;100.00;96222.50;4995658;28;19996;-79
2022/05/02 06:06:49;;;;;;;;;;;;;;;9.52;100.00;96219.06;5012605;28;20668;-79
2022/05/02 06:09:15;;;;;;;;;;;;;;;9.62;100.00;96214.53;5004890;28;19914;-80
2022/05/02 06:11:43;;;;;;;;;;;;;;;10.13;100.00;96211.09;5006441;28;19920;-79
2022/05/02 06:14:11;;;;;;;;;;;;;;;10.42;100.00;96215.16;5020391;28;19917;-79
2022/05/02 06:19:25;;;;;;;;;;;;;;;10.58;100.00;96217.03;5012043;28;19963;-79
2022/05/02 06:21:50;;;;;;;;;;;;;;;10.82;100.00;96218.91;5010841;28;19920;-80
2022/05/02 06:24:16;;;;;;;;;;;;;;;10.76;100.00;96212.47;5005300;28;19913;-79
2022/05/02 06:26:45;;;;;;;;;;;;;;;10.57;100.00;96221.47;5015584;28;19917;-79
2022/05/02 06:29:11;;;;;;;;;;;;;;;10.71;100.00;96221.84;5016369;28;19913;-79
2022/05/02 06:31:40;;;;;;;;;;;;;;;11.17;100.00;96211.75;5015366;28;19925;-80
2022/05/02 06:34:06;;;;;;;;;;;;;;;11.98;100.00;96216.16;5013998;28;19942;-80
2022/05/02 06:36:42;;;;;;;;;;;;;;;12.06;100.00;96215.31;4999819;28;20374;-80
2022/05/02 06:39:20;;;;;;;;;;;;;;;12.30;100.00;96209.94;4995256;28;19917;-80
2022/05/02 06:41:45;;;;;;;;;;;;;;;12.04;100.00;96220.75;5008245;28;19913;-80
2022/05/02 06:44:30;;;;;;;;;;;;;;;12.48;100.00;96213.19;5014360;28;19917;-79
2022/05/02 06:46:55;;;;;;;;;;;;;;;12.49;100.00;96212.19;5010974;28;19917;-79
2022/05/02 06:49:22;;;;;;;;;;;;;;;13.24;100.00;96209.94;5009912;28;19964;-79
2022/05/02 06:51:49;;;;;;;;;;;;;;;13.06;100.00;96210.25;5016572;28;19920;-79
2022/05/02 06:54:18;;;;;;;;;;;;;;;13.38;100.00;96204.75;5022134;28;19945;-79
2022/05/02 06:56:50;;;;;;;;;;;;;;;13.40;100.00;96205.38;5018488;28;19913;-79
2022/05/02 06:59:37;;;;;;;;;;;;;;;13.58;100.00;96204.25;5016001;28;19917;-80
2022/05/02 07:02:11;;;;;;;;;;;;;;;13.22;100.00;96207.50;5013621;28;19937;-79
2022/05/02 07:04:52;;;;;;;;;;;;;;;14.21;100.00;96199.50;5027494;28;19917;-79
2022/05/02 07:07:29;;;;;;;;;;;;;;;13.78;100.00;96204.56;4995829;28;19917;-80
2022/05/02 07:10:05;;;;;;;;;;;;;;;14.26;98.07;96200.59;5012306;28;19913;-79
2022/05/02 07:12:34;;;;;;;;;;;;;;;15.30;91.66;96192.44;5015509;28;19939;-79
2022/05/02 07:15:00;;;;;;;;;;;;;;;15.40;90.28;96194.78;5032055;28;20275;-79
2022/05/02 07:17:37;;;;;;;;;;;;;;;16.05;85.96;96191.03;4996814;28;19976;-80
2022/05/02 07:20:05;;;;;;;;;;;;;;;15.92;89.01;96194.41;5009823;28;19913;-79
2022/05/02 07:22:42;;;;;;;;;;;;;;;15.72;85.29;96186.31;5010776;28;19917;-79
2022/05/02 07:25:11;;;;;;;;;;;;;;;16.47;79.72;96183.91;5015544;28;19925;-80
2022/05/02 07:27:49;;;;;;;;;;;;;;;17.10;77.51;96187.25;5009860;28;20004;-80
2022/05/02 07:30:14;;;;;;;;;;;;;;;16.95;76.97;96183.91;4998565;28;19925;-80
2022/05/02 07:32:40;;;;;;;;;;;;;;;17.71;72.04;96182.81;5013623;28;19968;-80
2022/05/02 07:35:07;;;;;;;;;;;;;;;16.32;74.21;96188.53;5014105;28;19925;-80
2022/05/02 07:37:35;;;;;;;;;;;;;;;16.79;70.67;96177.13;5013775;28;19918;-79
2022/05/02 07:40:04;;;;;;;;;;;;;;;15.99;76.00;96191.78;5013946;28;19913;-80
2022/05/02 07:42:30;;;;;;;;;;;;;;;17.06;72.46;96183.31;5014167;28;20399;-79
2022/05/02 07:44:59;;;;;;;;;;;;;;;17.39;67.07;96190.53;5013981;28;19957;-80
2022/05/02 07:47:27;;;;;;;;;;;;;;;17.80;66.00;96182.38;5012239;28;20007;-79
2022/05/02 07:49:56;;;;;;;;;;;;;;;18.19;64.94;96175.38;5013912;28;19936;-80
2022/05/02 07:52:23;;;;;;;;;;;;;;;17.97;63.93;96180.13;5008765;28;19944;-79
2022/05/02 07:54:49;;;;;;;;;;;;;;;18.36;58.41;96181.88;4999223;28;19913;-79
2022/05/02 07:57:15;;;;;;;;;;;;;;;18.50;58.63;96174.69;4996347;28;19913;-79
2022/05/02 07:59:41;;;;;;;;;;;;;;;17.13;66.22;96181.50;5017915;28;19992;-79
2022/05/02 08:02:07;;;;;;;;;;;;;;;17.92;63.43;96179.94;5018220;28;19992;-80
2022/05/02 08:04:34;;;;;;;;;;;;;;;18.38;60.44;96184.38;5017338;28;19949;-79
2022/05/02 08:07:06;;;;;;;;;;;;;;;18.85;60.14;96174.38;5001398;28;19921;-79
2022/05/02 08:09:52;;;;;;;;;;;;;;;18.69;60.19;96182.81;4999947;28;20464;-80
2022/05/02 08:12:33;;;;;;;;;;;;;;;19.01;63.37;96179.22;5015113;28;19976;-80
2022/05/02 08:14:59;;;;;;;;;;;;;;;18.70;62.06;96184.44;4995038;28;19914;-80
2022/05/02 08:17:28;;;;;;;;;;;;;;;20.29;54.85;96170.00;5013588;28;20606;-80
2022/05/02 08:19:53;;;;;;;;;;;;;;;16.77;66.10;96196.91;5007337;28;20278;-80
2022/05/02 08:28:15;;;;;;;;;;;;;;;17.76;69.69;96183.84;5013194;28;20337;-79
2022/05/02 08:31:04;;;;;;;;;;;;;;;18.44;63.27;96188.81;5014328;28;19914;-79
2022/05/02 08:33:30;;;;;;;;;;;;;;;19.31;57.35;96183.94;4975999;28;19917;-81
2022/05/02 08:35:55;;;;;;;;;;;;;;;18.84;58.68;96178.06;5010255;28;20550;-80
2022/05/02 08:38:24;;;;;;;;;;;;;;;19.33;57.66;96176.56;5005324;28;19924;-80
2022/05/02 08:41:08;;;;;;;;;;;;;;;18.70;59.13;96179.13;5010491;28;19953;-81
2022/05/02 08:43:49;;;;;;;;;;;;;;;16.93;65.14;96191.25;5012833;28;19923;-80
2022/05/02 08:46:23;;;;;;;;;;;;;;;16.80;64.81;96196.53;4989805;28;20359;-79
2022/05/02 08:51:58;;;;;;;;;;;;;;;15.95;70.83;96190.56;5006963;28;19921;-80
2022/05/02 08:54:30;;;;;;;;;;;;;;;16.02;72.80;96194.06;4988578;28;20523;-79
2022/05/02 08:57:14;;;;;;;;;;;;;;;15.42;76.22;96190.09;5007291;28;19917;-79
2022/05/02 09:00:00;;;;;;;;;;;;;;;15.58;73.82;96195.13;4997633;28;19922;-80
2022/05/02 09:02:47;;;;;;;;;;;;;;;15.73;73.47;96187.97;5017721;28;19952;-79
2022/05/02 09:05:39;;;;;;;;;;;;;;;15.60;77.57;96187.00;5016314;28;19928;-80
2022/05/02 09:08:08;;;;;;;;;;;;;;;15.55;74.22;96190.22;5011293;28;19959;-79
2022/05/02 09:10:56;;;;;;;;;;;;;;;15.18;74.07;96192.13;5015434;28;19924;-80
2022/05/02 09:13:34;;;;;;;;;;;;;;;15.41;73.19;96188.47;4994380;28;19957;-79
2022/05/02 09:16:00;;;;;;;;;;;;;;;15.45;72.87;96181.78;5013101;28;19924;-80
2022/05/02 09:18:46;;;;;;;;;;;;;;;15.73;73.32;96193.25;5041917;28;19917;-80
2022/05/02 09:21:14;;;;;;;;;;;;;;;17.75;62.78;96184.03;4996447;28;19917;-80
2022/05/02 09:23:49;;;;;;;;;;;;;;;17.73;59.37;96181.56;5008332;28;20299;-80
2022/05/02 09:26:33;;;;;;;;;;;;;;;18.08;59.23;96184.03;5011631;28;19921;-79
2022/05/02 09:28:59;;;;;;;;;;;;;;;16.74;63.22;96174.22;5017049;28;19952;-79
2022/05/02 09:31:24;;;;;;;;;;;;;;;15.89;66.92;96184.19;4993678;28;20336;-80
2022/05/02 09:34:03;;;;;;;;;;;;;;;16.24;67.10;96178.91;5010877;28;19909;-80
2022/05/02 09:36:30;;;;;;;;;;;;;;;16.08;66.73;96180.03;5014782;28;19917;-80
2022/05/02 09:39:24;;;;;;;;;;;;;;;15.52;69.74;96187.94;5012716;28;20391;-80
2022/05/02 09:41:59;;;;;;;;;;;;;;;15.82;69.52;96187.81;4992797;28;19923;-80
2022/05/02 09:50:54;;;;;;;;;;;;;;;16.98;59.76;96177.38;5029046;28;19913;-80
2022/05/02 09:53:34;;;;;;;;;;;;;;;16.42;62.00;96179.19;5011331;28;19922;-80
2022/05/02 09:56:38;;;;;;;;;;;;;;;16.23;63.96;96174.59;4986958;28;19925;-80
2022/05/02 09:59:18;;;;;;;;;;;;;;;16.14;64.31;96176.59;5014574;28;19948;-80
2022/05/02 10:01:48;;;;;;;;;;;;;;;16.37;64.74;96171.00;5004105;28;19917;-80
2022/05/02 10:04:35;;;;;;;;;;;;;;;16.79;61.21;96166.50;5025261;28;19925;-79
2022/05/02 10:07:05;;;;;;;;;;;;;;;16.68;62.02;96167.88;4995316;28;19926;-81
2022/05/02 10:09:49;;;;;;;;;;;;;;;16.77;61.54;96159.75;5012564;28;19913;-79
2022/05/02 10:12:21;;;;;;;;;;;;;;;16.76;63.03;96164.25;5008073;28;19913;-80
2022/05/02 10:14:56;;;;;;;;;;;;;;;15.92;63.65;96167.06;5024496;28;19913;-79
2022/05/02 10:17:48;;;;;;;;;;;;;;;15.61;63.63;96160.28;5009017;28;19963;-80
2022/05/02 10:20:13;;;;;;;;;;;;;;;16.07;66.29;96164.31;5006886;28;19937;-79
2022/05/02 10:22:46;;;;;;;;;;;;;;;16.21;64.92;96156.22;5019319;28;19921;-81
2022/05/02 10:25:20;;;;;;;;;;;;;;;16.24;64.23;96158.50;5032736;28;20000;-79
2022/05/02 10:28:04;;;;;;;;;;;;;;;16.15;62.90;96151.69;5015166;28;19913;-78
2022/05/02 10:30:53;;;;;;;;;;;;;;;16.23;65.30;96151.56;5004471;28;19918;-80
2022/05/02 10:33:39;;;;;;;;;;;;;;;16.48;63.42;96151.84;5003592;28;19976;-80
2022/05/02 10:36:05;;;;;;;;;;;;;;;16.24;61.97;96145.22;4990456;28;19913;-79
2022/05/02 10:38:30;;;;;;;;;;;;;;;16.12;63.50;96146.78;5011705;28;19920;-80
2022/05/02 10:41:15;;;;;;;;;;;;;;;16.32;62.67;96146.06;5027942;28;19949;-80
2022/05/02 10:43:50;;;;;;;;;;;;;;;17.06;57.92;96140.00;5030857;28;19952;-80
2022/05/02 10:46:18;;;;;;;;;;;;;;;16.86;56.69;96139.94;5015843;28;20379;-79
2022/05/02 10:49:12;;;;;;;;;;;;;;;16.57;58.82;96144.56;5014031;28;19940;-79
2022/05/02 10:51:44;;;;;;;;;;;;;;;15.79;60.83;96147.44;5006769;28;20337;-79
2022/05/02 10:54:19;;;;;;;;;;;;;;;16.41;60.76;96139.59;5010677;28;19949;-79
2022/05/02 10:56:47;;;;;;;;;;;;;;;16.41;60.15;96140.41;5006819;28;20680;-79
2022/05/02 10:59:14;;;;;;;;;;;;;;;16.86;59.19;96138.13;5000653;28;19913;-79
2022/05/02 11:01:58;;;;;;;;;;;;;;;16.80;55.88;96132.78;5007239;28;19921;-79
2022/05/02 11:04:36;;;;;;;;;;;;;;;17.99;53.18;96127.53;5010213;28;20499;-80
2022/05/02 11:07:04;;;;;;;;;;;;;;;18.17;51.84;96128.72;5016032;28;19952;-80
2022/05/02 11:09:42;;;;;;;;;;;;;;;18.43;50.80;96125.97;5029700;28;19917;-79
2022/05/02 11:12:11;;;;;;;;;;;;;;;19.01;47.29;96128.56;5011389;28;19940;-79
2022/05/02 11:14:42;;;;;;;;;;;;;;;19.53;49.52;96112.41;5004668;28;19954;-79
2022/05/02 11:17:20;;;;;;;;;;;;;;;18.92;49.81;96115.72;5003786;28;19980;-79
2022/05/02 11:22:43;;;;;;;;;;;;;;;20.02;45.39;96105.41;5013100;28;19925;-79
2022/05/02 11:25:34;;;;;;;;;;;;;;;19.80;47.00;96102.31;5017135;28;19947;-79
2022/05/02 11:28:14;;;;;;;;;;;;;;;18.23;52.58;96112.72;5016734;28;20492;-79
2022/05/02 11:30:47;;;;;;;;;;;;;;;18.29;53.61;96111.88;5012280;28;19939;-80
2022/05/02 11:33:22;;;;;;;;;;;;;;;17.36;56.24;96104.03;5024188;28;19917;-80
2022/05/02 11:35:48;;;;;;;;;;;;;;;17.86;55.90;96107.09;5009686;28;19924;-79
2022/05/02 11:38:14;;;;;;;;;;;;;;;18.97;54.70;96103.38;4994819;28;20040;-79
2022/05/02 11:40:47;;;;;;;;;;;;;;;19.50;53.05;96097.63;5011645;28;19976;-80
2022/05/02 11:43:22;;;;;;;;;;;;;;;18.89;53.06;96098.31;5024378;28;19964;-79
2022/05/02 11:46:08;;;;;;;;;;;;;;;18.22;55.48;96104.97;5010603;28;20550;-80
2022/05/02 11:48:37;;;;;;;;;;;;;;;17.89;56.92;96103.19;5010338;28;20402;-79
2022/05/02 11:51:04;;;;;;;;;;;;;;;19.20;55.41;96086.81;5006495;28;19917;-80
2022/05/02 11:53:33;;;;;;;;;;;;;;;19.94;51.89;96089.66;4996629;28;19972;-80
2022/05/02 11:56:01;;;;;;;;;;;;;;;19.87;51.88;96087.06;5008141;28;21391;-79
2022/05/02 11:58:43;;;;;;;;;;;;;;;19.40;51.17;96088.50;5011142;28;19924;-80
2022/05/02 12:01:12;;;;;;;;;;;;;;;19.80;49.54;96080.97;5004444;28;19928;-79
2022/05/02 12:03:40;;;;;;;;;;;;;;;20.09;49.74;96083.97;5010795;28;19967;-80
2022/05/02 12:06:08;;;;;;;;;;;;;;;20.43;48.22;96075.34;5011822;28;19917;-80
2022/05/02 12:08:35;;;;;;;;;;;;;;;19.21;50.50;96082.28;5011594;28;20436;-80
2022/05/02 12:11:05;;;;;;;;;;;;;;;18.83;51.65;96091.16;5011333;28;19917;-80
2022/05/02 12:13:51;;;;;;;;;;;;;;;18.69;52.67;96084.25;5011202;28;20000;-81
2022/05/02 12:16:18;;;;;;;;;;;;;;;17.83;55.30;96090.72;5006687;28;20808;-79
2022/05/02 12:18:51;;;;;;;;;;;;;;;17.67;55.26;96089.28;4992023;28;19968;-80
2022/05/02 12:21:35;;;;;;;;;;;;;;;18.04;55.97;96092.31;5006776;28;19917;-79
2022/05/02 12:24:03;;;;;;;;;;;;;;;17.60;54.87;96088.47;4987085;28;20025;-80
2022/05/02 12:26:29;;;;;;;;;;;;;;;17.75;56.39;96086.41;5008673;28;19928;-80
2022/05/02 12:28:58;;;;;;;;;;;;;;;17.99;55.77;96089.47;5011316;28;20293;-79
2022/05/02 12:31:27;;;;;;;;;;;;;;;19.00;53.16;96080.81;4993725;28;19913;-79
2022/05/02 12:33:59;;;;;;;;;;;;;;;19.44;50.93;96079.84;5009668;28;19925;-80
2022/05/02 12:36:26;;;;;;;;;;;;;;;20.47;48.42;96073.84;5009102;28;19913;-80
2022/05/02 12:38:55;;;;;;;;;;;;;;;19.60;50.00;96083.00;5011266;28;19913;-79
2022/05/02 12:41:26;;;;;;;;;;;;;;;18.97;52.38;96081.22;5011651;28;19956;-80
2022/05/02 12:43:53;;;;;;;;;;;;;;;18.26;53.47;96085.69;5004943;28;20322;-80
2022/05/02 12:46:21;;;;;;;;;;;;;;;17.90;52.36;96087.00;5009733;28;20294;-79
2022/05/02 12:48:54;;;;;;;;;;;;;;;17.72;54.23;96078.03;5010547;28;19913;-79
2022/05/02 12:51:27;;;;;;;;;;;;;;;17.44;56.04;96089.75;5013001;28;19917;-79
2022/05/02 12:54:15;;;;;;;;;;;;;;;17.17;56.62;96081.78;5024265;28;19953;-79
2022/05/02 12:56:48;;;;;;;;;;;;;;;17.54;55.22;96078.66;5005633;28;19921;-79
2022/05/02 13:02:00;;;;;;;;;;;;;;;17.38;56.15;96080.75;5010849;28;19917;-79
2022/05/02 13:04:27;;;;;;;;;;;;;;;17.53;54.34;96072.53;5008880;28;19913;-79
2022/05/02 13:06:57;;;;;;;;;;;;;;;17.85;53.33;96075.38;5015182;28;19924;-79
2022/05/02 13:09:34;;;;;;;;;;;;;;;17.62;53.25;96068.63;5011762;28;19918;-80
2022/05/02 13:12:07;;;;;;;;;;;;;;;17.91;53.01;96066.56;5011108;28;20271;-79
2022/05/02 13:14:32;;;;;;;;;;;;;;;17.84;52.18;96060.44;5010636;28;19920;-79
2022/05/02 13:16:58;;;;;;;;;;;;;;;17.88;53.38;96061.66;5005337;28;19913;-79
2022/05/02 13:19:34;;;;;;;;;;;;;;;17.40;54.85;96061.91;5009802;28;19920;-79
2022/05/02 13:21:59;;;;;;;;;;;;;;;17.34;55.96;96060.91;5009055;28;19923;-79
2022/05/02 13:24:25;;;;;;;;;;;;;;;17.14;57.15;96054.78;5020712;28;19961;-79
2022/05/02 13:26:57;;;;;;;;;;;;;;;17.34;55.78;96050.28;5019682;28;19921;-78
2022/05/02 13:29:28;;;;;;;;;;;;;;;17.95;53.69;96043.84;5000588;28;20011;-79
2022/05/02 13:32:04;;;;;;;;;;;;;;;17.98;55.22;96043.41;5013073;28;19920;-79